Time;durP1;ratioP1;P1;durP2;ratioP2;P2;SDS_P1;SDS_P2;PMS_P1;PMS_P2;Temp;Humidity;BMP_temperature;BMP_pressure;BME280_temperature;BME280_humidity;BME280_pressure;Samples;Min_cycle;Max_cycle;Signal;HPM_P1;HPM_P2
2023/05/30 00:01:42;;;;;;;;;;;;;;;20.96;62.48;100998.16;5034418;28;19929;-88
2023/05/30 00:04:07;;;;;;;;;;;;;;;20.97;63.09;100995.50;5018114;28;19972;-89
2023/05/30 00:06:33;;;;;;;;;;;;;;;20.97;62.82;100998.16;5032919;28;19921;-89
2023/05/30 00:09:00;;;;;;;;;;;;;;;20.94;62.72;100993.72;5038393;28;20001;-89
2023/05/30 00:11:28;;;;;;;;;;;;;;;20.96;62.21;100992.88;5035873;28;19931;-87
2023/05/30 00:13:54;;;;;;;;;;;;;;;20.97;62.96;100998.16;5037767;28;19916;-88
2023/05/30 00:16:19;;;;;;;;;;;;;;;20.94;62.78;100995.47;5034397;28;19921;-87
2023/05/30 00:18:45;;;;;;;;;;;;;;;20.92;62.89;100997.22;5035000;28;19920;-88
2023/05/30 00:21:10;;;;;;;;;;;;;;;20.93;62.83;101002.56;5034003;28;19980;-88
2023/05/30 00:23:37;;;;;;;;;;;;;;;20.92;62.51;100997.22;5035407;28;20023;-88
2023/05/30 00:26:04;;;;;;;;;;;;;;;20.93;62.21;101005.22;5024577;28;19921;-88
2023/05/30 00:28:29;;;;;;;;;;;;;;;20.92;62.25;100999.88;5015494;28;20378;-88
2023/05/30 00:30:55;;;;;;;;;;;;;;;20.91;62.35;101003.38;5049786;28;19928;-88
2023/05/30 00:33:20;;;;;;;;;;;;;;;20.92;62.18;101002.53;5033809;28;19925;-87
2023/05/30 00:35:46;;;;;;;;;;;;;;;20.93;61.89;101001.66;5034247;28;20484;-87
2023/05/30 00:38:11;;;;;;;;;;;;;;;20.89;62.26;101008.69;5032768;28;19960;-87
2023/05/30 00:40:37;;;;;;;;;;;;;;;20.90;62.66;101006.94;5050219;28;19921;-88
2023/05/30 00:43:02;;;;;;;;;;;;;;;20.91;62.43;101014.00;5050641;28;20306;-88
2023/05/30 00:45:30;;;;;;;;;;;;;;;20.92;62.29;101005.19;5031905;28;20428;-88
2023/05/30 00:47:56;;;;;;;;;;;;;;;20.92;61.83;101011.38;5033405;28;19920;-89
2023/05/30 00:50:26;;;;;;;;;;;;;;;20.91;62.53;101011.34;5017469;28;19921;-88
2023/05/30 00:52:51;;;;;;;;;;;;;;;20.91;62.51;101006.03;5034625;28;19932;-89
2023/05/30 00:55:18;;;;;;;;;;;;;;;20.92;62.44;101013.16;5033203;28;19925;-88
2023/05/30 00:57:44;;;;;;;;;;;;;;;20.90;62.58;101005.16;5034515;28;19917;-87
2023/05/30 01:00:13;;;;;;;;;;;;;;;20.90;62.21;101013.13;5018138;28;19920;-88
2023/05/30 01:02:39;;;;;;;;;;;;;;;20.89;62.02;101003.38;5033495;28;19921;-87
2023/05/30 01:05:04;;;;;;;;;;;;;;;20.88;61.72;101012.19;5033518;28;19921;-88
2023/05/30 01:07:31;;;;;;;;;;;;;;;20.89;62.30;100999.81;5032617;28;20479;-89
2023/05/30 01:09:58;;;;;;;;;;;;;;;20.88;61.61;101008.66;5033920;28;19925;-89
2023/05/30 01:12:28;;;;;;;;;;;;;;;20.89;62.39;101006.03;5029439;28;19916;-89
2023/05/30 01:15:05;;;;;;;;;;;;;;;20.88;61.65;101014.84;5033560;28;20393;-90
2023/05/30 01:17:33;;;;;;;;;;;;;;;20.88;62.08;101009.53;5033503;28;19990;-89
2023/05/30 01:20:18;;;;;;;;;;;;;;;20.86;61.80;101007.75;5028079;28;19924;-89
2023/05/30 01:23:00;;;;;;;;;;;;;;;20.85;61.48;101012.16;5034262;28;20521;-90
2023/05/30 01:25:32;;;;;;;;;;;;;;;20.85;61.52;101003.28;5049927;28;19929;-88
2023/05/30 01:27:58;;;;;;;;;;;;;;;20.84;61.76;100998.88;5049205;28;19958;-89
2023/05/30 01:30:28;;;;;;;;;;;;;;;20.86;61.80;101003.31;5049994;28;20378;-91
2023/05/30 01:32:54;;;;;;;;;;;;;;;20.85;62.01;100998.91;5043315;28;19921;-90
2023/05/30 01:35:23;;;;;;;;;;;;;;;20.84;61.68;101007.72;5013952;28;20390;-90
2023/05/30 01:37:53;;;;;;;;;;;;;;;20.85;61.77;101004.19;5047407;28;19958;-90
2023/05/30 01:40:21;;;;;;;;;;;;;;;20.84;61.52;100998.88;5032366;28;19956;-90
2023/05/30 01:42:48;;;;;;;;;;;;;;;20.84;61.76;101005.06;5018392;28;20449;-89
2023/05/30 01:45:18;;;;;;;;;;;;;;;20.85;61.69;101004.19;5010136;28;19921;-89
2023/05/30 01:47:44;;;;;;;;;;;;;;;20.83;62.03;101003.28;5008358;28;20014;-89
2023/05/30 01:50:10;;;;;;;;;;;;;;;20.80;62.12;101005.00;5013598;28;19921;-88
2023/05/30 01:52:36;;;;;;;;;;;;;;;20.84;61.80;101002.41;5030999;28;20465;-88
2023/05/30 01:55:03;;;;;;;;;;;;;;;20.84;61.73;100991.78;5030055;28;19956;-88
2023/05/30 01:57:30;;;;;;;;;;;;;;;20.84;61.92;101004.16;5019269;28;19928;-88
2023/05/30 01:59:56;;;;;;;;;;;;;;;20.81;61.90;100996.19;5028798;28;19933;-89
2023/05/30 02:02:22;;;;;;;;;;;;;;;20.80;61.72;100999.69;5026751;28;19959;-88
2023/05/30 02:04:48;;;;;;;;;;;;;;;20.80;61.31;100999.69;5012967;28;19921;-89
2023/05/30 02:07:15;;;;;;;;;;;;;;;20.81;61.80;100996.19;5029439;28;19975;-90
2023/05/30 02:09:42;;;;;;;;;;;;;;;20.80;61.90;101002.34;5029916;28;19925;-89
2023/05/30 02:12:08;;;;;;;;;;;;;;;20.79;61.76;101004.09;5029421;28;19964;-89
2023/05/30 02:14:38;;;;;;;;;;;;;;;20.82;61.56;101009.44;5029008;28;20405;-89
2023/05/30 02:17:05;;;;;;;;;;;;;;;20.82;61.38;101008.56;5027580;28;20015;-87
2023/05/30 02:19:30;;;;;;;;;;;;;;;20.79;61.62;101013.84;5034307;28;20473;-88
2023/05/30 02:21:56;;;;;;;;;;;;;;;20.80;61.77;101020.91;5017288;28;19972;-90
2023/05/30 02:24:22;;;;;;;;;;;;;;;20.76;62.16;101013.78;5013568;28;19921;-89
2023/05/30 02:26:49;;;;;;;;;;;;;;;20.77;61.77;101013.81;5013990;28;19928;-90
2023/05/30 02:29:15;;;;;;;;;;;;;;;20.74;61.53;101019.97;5010411;28;19921;-89
2023/05/30 02:31:40;;;;;;;;;;;;;;;20.74;61.76;101016.38;5022045;28;20041;-90
2023/05/30 02:34:06;;;;;;;;;;;;;;;20.71;61.50;101013.69;5029803;28;19960;-90
2023/05/30 02:36:32;;;;;;;;;;;;;;;20.73;61.48;101017.28;5008618;28;19921;-89
2023/05/30 02:39:04;;;;;;;;;;;;;;;20.71;62.07;101024.31;5023719;28;19926;-90
2023/05/30 02:41:31;;;;;;;;;;;;;;;20.67;62.14;101022.47;5009242;28;19928;-90
2023/05/30 02:47:33;;;;;;;;;;;;;;;20.70;62.21;101027.81;5040422;28;19963;-89
2023/05/30 02:53:07;;;;;;;;;;;;;;;20.76;61.91;101024.38;4990874;28;19984;-90
2023/05/30 02:55:34;;;;;;;;;;;;;;;20.77;61.27;101024.41;4958747;28;20676;-89
2023/05/30 02:58:01;;;;;;;;;;;;;;;20.77;61.13;101023.53;4972136;28;20126;-89
2023/05/30 03:03:51;;;;;;;;;;;;;;;20.74;61.22;101027.00;4977294;28;20012;-88
2023/05/30 03:07:17;;;;;;;;;;;;;;;20.70;61.29;101025.16;4987693;28;19930;-89
2023/05/30 03:09:44;;;;;;;;;;;;;;;20.71;61.50;101033.16;4991902;28;19921;-88
2023/05/30 03:12:09;;;;;;;;;;;;;;;20.74;61.24;101032.31;4976125;28;19921;-89
2023/05/30 03:14:35;;;;;;;;;;;;;;;20.70;61.56;101022.50;4978929;28;20371;-89
2023/05/30 03:17:00;;;;;;;;;;;;;;;20.72;61.51;101031.38;4975106;28;19930;-88
2023/05/30 03:19:25;;;;;;;;;;;;;;;20.70;61.77;101028.75;4975313;28;19937;-89
2023/05/30 03:21:51;;;;;;;;;;;;;;;20.71;61.48;101024.31;5037465;28;19921;-87
2023/05/30 03:24:16;;;;;;;;;;;;;;;20.68;61.82;101030.47;5042198;28;20374;-88
2023/05/30 03:26:42;;;;;;;;;;;;;;;20.63;62.41;101029.47;5033589;28;19921;-89
2023/05/30 03:29:08;;;;;;;;;;;;;;;20.59;62.51;101017.03;5036561;28;19920;-89
2023/05/30 03:31:35;;;;;;;;;;;;;;;20.61;62.96;101025.03;5036217;28;19950;-90
2023/05/30 03:34:20;;;;;;;;;;;;;;;20.61;62.77;101027.69;5019318;28;19913;-89
2023/05/30 03:36:45;;;;;;;;;;;;;;;20.62;63.52;101022.41;4990391;28;20368;-88
2023/05/30 03:39:13;;;;;;;;;;;;;;;20.62;62.97;101017.09;5046320;28;20398;-88
2023/05/30 03:41:45;;;;;;;;;;;;;;;20.64;62.79;101022.44;5035697;28;20061;-89
2023/05/30 03:44:11;;;;;;;;;;;;;;;20.63;62.60;101024.19;5053837;28;19917;-88
2023/05/30 03:46:36;;;;;;;;;;;;;;;20.64;63.33;101028.63;5014536;28;19925;-89
2023/05/30 03:49:06;;;;;;;;;;;;;;;20.62;62.96;101032.13;5033271;28;19917;-90
2023/05/30 03:51:53;;;;;;;;;;;;;;;20.61;63.56;101048.91;5034211;28;19939;-90
2023/05/30 03:57:34;;;;;;;;;;;;;;;20.61;63.86;101038.28;5023544;28;20019;-89
2023/05/30 04:00:13;;;;;;;;;;;;;;;20.60;62.86;101050.66;5033311;28;20063;-90
2023/05/30 04:02:41;;;;;;;;;;;;;;;20.61;63.13;101046.25;5012899;28;19921;-91
2023/05/30 04:05:14;;;;;;;;;;;;;;;20.62;63.56;101043.63;5009484;28;19921;-91
2023/05/30 04:08:06;;;;;;;;;;;;;;;20.61;63.35;101046.25;5017554;28;19918;-91
2023/05/30 04:10:59;;;;;;;;;;;;;;;20.61;63.41;101046.25;5007535;28;20400;-91
2023/05/30 04:13:25;;;;;;;;;;;;;;;20.63;63.54;101044.53;5026894;28;20970;-89
2023/05/30 04:15:56;;;;;;;;;;;;;;;20.71;63.46;101048.19;5014208;28;20015;-88
2023/05/30 04:18:22;;;;;;;;;;;;;;;20.76;63.17;101045.63;5022911;28;20313;-82
2023/05/30 04:20:47;;;;;;;;;;;;;;;20.77;62.73;101048.31;5034786;28;19921;-84
2023/05/30 04:23:38;;;;;;;;;;;;;;;20.74;62.57;101048.22;5030733;28;20361;-85
2023/05/30 04:26:08;;;;;;;;;;;;;;;20.74;62.56;101051.81;5026030;28;20457;-83
2023/05/30 04:28:56;;;;;;;;;;;;;;;20.73;62.96;101052.66;5001356;28;19987;-83
2023/05/30 04:31:23;;;;;;;;;;;;;;;20.70;64.00;101051.69;5030638;28;19922;-85
2023/05/30 04:33:50;;;;;;;;;;;;;;;20.70;63.26;101057.94;5033173;28;19921;-85
2023/05/30 04:36:18;;;;;;;;;;;;;;;20.67;63.56;101049.91;5029863;28;19925;-84
2023/05/30 04:38:44;;;;;;;;;;;;;;;20.62;63.01;101048.06;5032943;28;19999;-85
2023/05/30 04:41:10;;;;;;;;;;;;;;;20.63;63.70;101053.38;5009514;28;19921;-85
2023/05/30 04:43:35;;;;;;;;;;;;;;;20.70;63.30;101052.63;5029766;28;19937;-85
2023/05/30 04:46:03;;;;;;;;;;;;;;;20.74;62.68;101049.16;5031679;28;19948;-85
2023/05/30 04:48:29;;;;;;;;;;;;;;;20.77;63.22;101058.03;5016844;28;20007;-85
2023/05/30 04:50:55;;;;;;;;;;;;;;;20.72;61.80;101056.19;5044912;28;20036;-85
2023/05/30 04:53:20;;;;;;;;;;;;;;;20.70;63.96;101062.31;5032755;28;19920;-86
2023/05/30 04:55:46;;;;;;;;;;;;;;;20.69;62.67;101053.47;5028282;28;20374;-83
2023/05/30 04:58:12;;;;;;;;;;;;;;;20.63;63.87;101056.00;5032337;28;20302;-82
2023/05/30 05:01:01;;;;;;;;;;;;;;;20.64;64.33;101054.28;5018850;28;19964;-85
2023/05/30 05:03:30;;;;;;;;;;;;;;;20.66;64.12;101069.34;5033268;28;19928;-84
2023/05/30 05:06:21;;;;;;;;;;;;;;;20.69;64.15;101071.16;4995702;28;20314;-85
2023/05/30 05:08:46;;;;;;;;;;;;;;;20.59;63.96;101066.56;4994664;28;20031;-85
2023/05/30 05:11:13;;;;;;;;;;;;;;;20.62;64.53;101074.59;5028156;28;20123;-83
2023/05/30 05:13:38;;;;;;;;;;;;;;;20.59;64.63;101071.88;5029079;28;19928;-84
2023/05/30 05:16:07;;;;;;;;;;;;;;;20.68;63.67;101074.66;5049587;28;19928;-84
2023/05/30 05:18:35;;;;;;;;;;;;;;;20.67;64.52;101071.13;5040658;28;19924;-84
2023/05/30 05:21:00;;;;;;;;;;;;;;;20.68;63.16;101078.25;5047314;28;19921;-83
2023/05/30 05:23:31;;;;;;;;;;;;;;;20.65;64.21;101074.63;5048766;28;19928;-83
2023/05/30 05:26:00;;;;;;;;;;;;;;;20.56;63.65;101075.31;5025883;28;19925;-84
2023/05/30 05:28:29;;;;;;;;;;;;;;;20.54;63.48;101080.59;5046155;28;20314;-84
2023/05/30 05:34:21;;;;;;;;;;;;;;;20.58;63.14;101086.91;5030457;28;20424;-82
2023/05/30 05:40:07;;;;;;;;;;;;;;;20.54;63.81;101099.16;5029505;28;19961;-85
2023/05/30 05:42:33;;;;;;;;;;;;;;;20.58;64.56;101102.81;5051306;28;19924;-86
2023/05/30 05:44:59;;;;;;;;;;;;;;;20.57;64.52;101108.06;5033578;28;19917;-87
2023/05/30 05:47:25;;;;;;;;;;;;;;;20.57;64.38;101105.41;5051005;28;19921;-86
2023/05/30 05:49:51;;;;;;;;;;;;;;;20.60;63.86;101103.75;5038791;28;19917;-87
2023/05/30 05:52:17;;;;;;;;;;;;;;;20.63;63.69;101105.56;5033358;28;19916;-86
2023/05/30 05:54:42;;;;;;;;;;;;;;;20.60;63.31;101106.41;5051154;28;20433;-86
2023/05/30 05:57:08;;;;;;;;;;;;;;;20.59;63.69;101101.06;5033085;28;19917;-86
2023/05/30 05:59:33;;;;;;;;;;;;;;;20.63;64.26;101098.47;5051233;28;19917;-86
2023/05/30 06:01:58;;;;;;;;;;;;;;;20.59;63.27;101101.06;5033279;28;19920;-85
2023/05/30 06:04:24;;;;;;;;;;;;;;;20.60;63.08;101103.75;5033353;28;19924;-85
2023/05/30 06:06:49;;;;;;;;;;;;;;;20.59;63.84;101101.94;5016494;28;20488;-86
2023/05/30 06:09:15;;;;;;;;;;;;;;;20.66;63.22;101102.97;5032914;28;19924;-85
2023/05/30 06:11:40;;;;;;;;;;;;;;;20.67;63.02;101108.28;5051051;28;20672;-84
2023/05/30 06:14:06;;;;;;;;;;;;;;;20.70;62.88;101111.00;5050881;28;19921;-87
2023/05/30 06:16:31;;;;;;;;;;;;;;;20.76;62.84;101122.59;5050563;28;20301;-85
2023/05/30 06:18:57;;;;;;;;;;;;;;;20.72;63.55;101122.53;5049339;28;19955;-83
2023/05/30 06:21:22;;;;;;;;;;;;;;;20.82;63.28;101122.69;5050241;28;20317;-86
2023/05/30 06:23:48;;;;;;;;;;;;;;;20.77;63.55;101127.94;5020969;28;20314;-87
2023/05/30 06:26:13;;;;;;;;;;;;;;;20.75;63.51;101124.34;5030722;28;19917;-87
2023/05/30 06:28:38;;;;;;;;;;;;;;;20.77;63.39;101122.63;5054642;28;19912;-86
2023/05/30 06:31:04;;;;;;;;;;;;;;;20.80;63.35;101129.75;5054830;28;19967;-86
2023/05/30 06:33:29;;;;;;;;;;;;;;;20.76;63.51;101131.44;5033914;28;19971;-85
2023/05/30 06:35:55;;;;;;;;;;;;;;;20.70;63.52;101121.63;5048962;28;20412;-86
2023/05/30 06:38:20;;;;;;;;;;;;;;;20.78;63.60;101119.09;5054383;28;20011;-85
2023/05/30 06:40:46;;;;;;;;;;;;;;;20.75;63.25;101124.34;5054639;28;19920;-86
2023/05/30 06:43:11;;;;;;;;;;;;;;;20.73;63.27;101131.41;5030921;28;19948;-86
2023/05/30 06:45:37;;;;;;;;;;;;;;;20.76;63.60;101130.53;5054518;28;19943;-85
2023/05/30 06:48:02;;;;;;;;;;;;;;;20.79;63.44;101130.63;5054043;28;20397;-85
2023/05/30 06:50:28;;;;;;;;;;;;;;;20.75;63.08;101132.31;5054146;28;20378;-85
2023/05/30 06:52:53;;;;;;;;;;;;;;;20.80;63.54;101132.41;5036634;28;20382;-86
2023/05/30 06:55:19;;;;;;;;;;;;;;;20.80;63.48;101132.41;5019600;28;19917;-85
2023/05/30 06:57:44;;;;;;;;;;;;;;;20.79;63.01;101139.47;5052903;28;19919;-85
2023/05/30 07:00:10;;;;;;;;;;;;;;;20.71;63.33;101135.78;5054124;28;20283;-86
2023/05/30 07:02:36;;;;;;;;;;;;;;;20.81;63.37;101140.41;5019751;28;19924;-85
2023/05/30 07:05:01;;;;;;;;;;;;;;;20.78;63.00;101142.09;5053917;28;19941;-84
2023/05/30 07:07:27;;;;;;;;;;;;;;;20.78;63.12;101145.63;5036248;28;20463;-85
2023/05/30 07:09:52;;;;;;;;;;;;;;;20.83;63.02;101156.34;5036445;28;19916;-85
2023/05/30 07:12:18;;;;;;;;;;;;;;;20.83;62.96;101151.03;5044233;28;20007;-86
2023/05/30 07:14:43;;;;;;;;;;;;;;;20.81;63.19;101153.66;5036337;28;20317;-85
2023/05/30 07:17:09;;;;;;;;;;;;;;;20.77;63.11;101157.13;5046161;28;20374;-86
2023/05/30 07:19:34;;;;;;;;;;;;;;;20.80;63.42;101151.88;5053558;28;20401;-84
2023/05/30 07:22:00;;;;;;;;;;;;;;;20.83;63.25;101153.69;5036426;28;19925;-84
2023/05/30 07:24:25;;;;;;;;;;;;;;;20.82;63.32;101157.22;5035722;28;19917;-85
2023/05/30 07:26:51;;;;;;;;;;;;;;;20.81;63.28;101148.34;5036263;28;19987;-84
2023/05/30 07:29:16;;;;;;;;;;;;;;;20.82;63.17;101165.16;5052102;28;19928;-84
2023/05/30 07:31:41;;;;;;;;;;;;;;;20.84;62.75;101160.78;5053510;28;19990;-85
2023/05/30 07:34:07;;;;;;;;;;;;;;;20.84;62.47;101161.66;5053149;28;19920;-85
2023/05/30 07:36:32;;;;;;;;;;;;;;;20.89;62.71;101164.41;5053994;28;19921;-85
2023/05/30 07:38:58;;;;;;;;;;;;;;;20.86;62.88;101161.72;5048574;28;20295;-85
2023/05/30 07:41:23;;;;;;;;;;;;;;;20.86;62.68;101164.38;5053560;28;20451;-84
2023/05/30 07:43:49;;;;;;;;;;;;;;;20.88;62.56;101170.59;5053367;28;19921;-85
2023/05/30 07:46:14;;;;;;;;;;;;;;;20.88;63.08;101171.47;5035405;28;20340;-85
2023/05/30 07:48:40;;;;;;;;;;;;;;;20.89;63.02;101172.38;5035943;28;19917;-84
2023/05/30 07:51:06;;;;;;;;;;;;;;;20.89;62.72;101181.25;5053481;28;19913;-84
2023/05/30 07:53:32;;;;;;;;;;;;;;;20.89;62.50;101172.38;5034870;28;20019;-85
2023/05/30 07:55:58;;;;;;;;;;;;;;;20.92;62.85;101175.97;5053490;28;19913;-84
2023/05/30 07:58:23;;;;;;;;;;;;;;;20.94;62.96;101176.03;5053256;28;19974;-84
2023/05/30 08:00:49;;;;;;;;;;;;;;;20.95;62.51;101177.78;5053149;28;20410;-84
2023/05/30 08:03:15;;;;;;;;;;;;;;;20.90;63.05;101177.72;5035077;28;20362;-85
2023/05/30 08:05:40;;;;;;;;;;;;;;;20.92;63.08;101173.31;5053094;28;19917;-84
2023/05/30 08:08:07;;;;;;;;;;;;;;;21.02;62.39;101169.09;5034951;28;19974;-84
2023/05/30 08:10:32;;;;;;;;;;;;;;;21.06;62.38;101175.31;5052924;28;19968;-84
2023/05/30 08:12:58;;;;;;;;;;;;;;;21.05;62.59;101165.59;5052608;28;20018;-84
2023/05/30 08:15:24;;;;;;;;;;;;;;;21.07;62.72;101169.16;5052951;28;19924;-84
2023/05/30 08:17:50;;;;;;;;;;;;;;;21.04;62.98;101167.34;5020497;28;20016;-84
2023/05/30 08:20:16;;;;;;;;;;;;;;;21.09;62.39;101170.97;5052806;28;20046;-84
2023/05/30 08:22:41;;;;;;;;;;;;;;;21.07;63.07;101163.84;5047613;28;19997;-84
2023/05/30 08:25:07;;;;;;;;;;;;;;;21.04;62.81;101162.03;5051515;28;20004;-84
2023/05/30 08:27:34;;;;;;;;;;;;;;;21.09;62.76;101163.00;5018160;28;19956;-84
2023/05/30 08:29:59;;;;;;;;;;;;;;;21.14;62.06;101161.34;5035101;28;20459;-84
2023/05/30 08:32:26;;;;;;;;;;;;;;;21.14;62.10;101160.41;5052187;28;19952;-85
2023/05/30 08:34:51;;;;;;;;;;;;;;;21.17;62.02;101162.22;5034481;28;19943;-84
2023/05/30 08:37:18;;;;;;;;;;;;;;;21.20;61.88;101163.19;5034594;28;20394;-84
2023/05/30 08:39:44;;;;;;;;;;;;;;;21.19;61.78;101166.72;5052311;28;19921;-85
2023/05/30 08:42:12;;;;;;;;;;;;;;;21.18;61.74;101164.91;5034285;28;20532;-84
2023/05/30 08:44:38;;;;;;;;;;;;;;;21.20;61.88;101168.50;5052307;28;19921;-85
2023/05/30 08:47:03;;;;;;;;;;;;;;;21.24;61.81;101167.69;5021182;28;20027;-85
2023/05/30 08:49:31;;;;;;;;;;;;;;;21.22;61.75;101163.22;5023900;28;19939;-83
2023/05/30 08:51:56;;;;;;;;;;;;;;;21.20;61.85;101173.81;5037067;28;19928;-84
2023/05/30 08:54:22;;;;;;;;;;;;;;;21.23;61.59;101179.19;5034360;28;20337;-86
2023/05/30 08:56:55;;;;;;;;;;;;;;;21.23;61.85;101168.56;5034815;28;20024;-84
2023/05/30 08:59:21;;;;;;;;;;;;;;;21.28;61.63;101166.88;5052123;28;20565;-86
2023/05/30 09:01:46;;;;;;;;;;;;;;;21.30;61.60;101172.22;5033803;28;20409;-86
2023/05/30 09:04:12;;;;;;;;;;;;;;;21.28;61.49;101174.84;5034235;28;19924;-85
2023/05/30 09:06:37;;;;;;;;;;;;;;;21.31;61.53;101177.56;5029582;28;20024;-85
2023/05/30 09:09:03;;;;;;;;;;;;;;;21.31;61.60;101172.25;5030734;28;19918;-85
2023/05/30 09:11:29;;;;;;;;;;;;;;;21.33;61.52;101172.25;5033600;28;19917;-85
2023/05/30 09:13:55;;;;;;;;;;;;;;;21.33;61.52;101170.47;5051665;28;20408;-85
2023/05/30 09:16:21;;;;;;;;;;;;;;;21.36;61.58;101161.69;5030327;28;19944;-85
2023/05/30 09:18:46;;;;;;;;;;;;;;;21.37;61.84;101175.84;5051806;28;20378;-84
2023/05/30 09:21:12;;;;;;;;;;;;;;;21.36;61.69;101167.00;5033668;28;19917;-85
2023/05/30 09:23:37;;;;;;;;;;;;;;;21.36;61.53;101169.66;5033822;28;19924;-84
2023/05/30 09:26:05;;;;;;;;;;;;;;;21.37;61.72;101175.84;5033705;28;20384;-85
2023/05/30 09:28:33;;;;;;;;;;;;;;;21.38;61.56;101167.91;5049965;28;19923;-85
2023/05/30 09:30:59;;;;;;;;;;;;;;;21.40;61.75;101178.56;5051288;28;20550;-85
2023/05/30 09:33:25;;;;;;;;;;;;;;;21.40;61.72;101183.88;5033300;28;19924;-84
2023/05/30 09:35:53;;;;;;;;;;;;;;;21.41;61.71;101172.38;5033264;28;19917;-85
2023/05/30 09:38:22;;;;;;;;;;;;;;;21.42;61.65;101182.16;5046535;28;19968;-85
2023/05/30 09:41:01;;;;;;;;;;;;;;;21.43;61.66;101186.63;5050079;28;20091;-85
2023/05/30 09:43:37;;;;;;;;;;;;;;;21.44;61.69;101181.34;5051090;28;19925;-85
2023/05/30 09:46:05;;;;;;;;;;;;;;;21.45;61.63;101180.47;5033539;28;20408;-85
2023/05/30 09:48:31;;;;;;;;;;;;;;;21.47;61.84;101172.53;5050981;28;19920;-85
2023/05/30 09:51:02;;;;;;;;;;;;;;;21.48;61.53;101179.59;5051127;28;19927;-85
2023/05/30 09:53:33;;;;;;;;;;;;;;;21.48;61.50;101174.28;5033624;28;19979;-85
2023/05/30 09:55:59;;;;;;;;;;;;;;;21.49;61.64;101170.78;5033419;28;20019;-85
2023/05/30 09:58:25;;;;;;;;;;;;;;;21.48;61.63;101187.56;5032926;28;20309;-85
2023/05/30 10:00:53;;;;;;;;;;;;;;;21.49;62.05;101213.28;5050949;28;20374;-84
2023/05/30 10:03:19;;;;;;;;;;;;;;;21.45;61.86;101216.78;5033328;28;20309;-86
2023/05/30 10:05:45;;;;;;;;;;;;;;;21.46;62.28;101216.81;5027574;28;19924;-86
2023/05/30 10:08:10;;;;;;;;;;;;;;;21.50;62.35;101213.28;5046399;28;20772;-86
2023/05/30 10:10:36;;;;;;;;;;;;;;;21.50;62.12;101201.78;5030759;28;19931;-85
2023/05/30 10:13:02;;;;;;;;;;;;;;;21.50;61.81;101189.38;5033653;28;19920;-85
2023/05/30 10:15:28;;;;;;;;;;;;;;;21.50;62.35;101175.22;5051262;28;19917;-88
2023/05/30 10:17:54;;;;;;;;;;;;;;;21.51;61.69;101161.94;5051520;28;19940;-88
2023/05/30 10:20:20;;;;;;;;;;;;;;;21.52;61.50;101158.41;5051087;28;19923;-89
2023/05/30 10:22:48;;;;;;;;;;;;;;;21.51;61.49;101156.63;5032828;28;20000;-87
2023/05/30 10:25:13;;;;;;;;;;;;;;;21.51;61.75;101167.28;5033282;28;20435;-88
2023/05/30 10:27:59;;;;;;;;;;;;;;;21.50;61.87;101168.13;5046939;28;19917;-88
2023/05/30 10:30:28;;;;;;;;;;;;;;;21.49;61.98;101186.72;5050039;28;19948;-88
2023/05/30 10:33:05;;;;;;;;;;;;;;;21.51;62.12;101198.28;5032757;28;20389;-88
2023/05/30 10:35:30;;;;;;;;;;;;;;;21.45;62.32;101200.81;5032811;28;20012;-88
2023/05/30 10:37:56;;;;;;;;;;;;;;;21.39;62.41;101190.94;5032956;28;19967;-89
2023/05/30 10:40:42;;;;;;;;;;;;;;;21.47;61.99;101185.81;5018698;28;19920;-87
2023/05/30 10:43:13;;;;;;;;;;;;;;;21.48;62.10;101191.16;5040357;28;19940;-87
2023/05/30 10:45:45;;;;;;;;;;;;;;;21.50;61.93;101202.66;5049876;28;20405;-88
2023/05/30 10:48:28;;;;;;;;;;;;;;;21.43;62.14;101194.59;5028466;28;19921;-88
2023/05/30 10:50:55;;;;;;;;;;;;;;;21.44;62.13;101194.63;5031370;28;20036;-88
2023/05/30 10:53:20;;;;;;;;;;;;;;;21.44;62.41;101191.97;5018477;28;19913;-89
2023/05/30 10:55:46;;;;;;;;;;;;;;;21.48;62.26;101176.94;5029998;28;20408;-89
2023/05/30 10:58:30;;;;;;;;;;;;;;;21.50;62.28;101181.41;5029802;28;19917;-89
2023/05/30 11:00:56;;;;;;;;;;;;;;;21.51;62.13;101177.00;5031151;28;19975;-88
2023/05/30 11:03:37;;;;;;;;;;;;;;;21.50;62.19;101165.47;5012605;28;19918;-88
2023/05/30 11:06:02;;;;;;;;;;;;;;;21.53;62.06;101167.31;5029963;28;19920;-86
2023/05/30 11:08:27;;;;;;;;;;;;;;;21.54;62.31;101174.38;5034002;28;19932;-87
2023/05/30 11:10:55;;;;;;;;;;;;;;;21.54;62.13;101167.31;5005072;28;19917;-85
2023/05/30 11:13:20;;;;;;;;;;;;;;;21.55;61.94;101178.84;5007411;28;19917;-84
2023/05/30 11:15:46;;;;;;;;;;;;;;;21.55;61.81;101187.72;5015983;28;19929;-85
2023/05/30 11:18:15;;;;;;;;;;;;;;;21.57;62.05;101182.44;5033844;28;19921;-85
2023/05/30 11:20:53;;;;;;;;;;;;;;;21.45;63.06;101196.41;5033837;28;19917;-86
2023/05/30 11:23:19;;;;;;;;;;;;;;;21.38;63.38;101193.56;5032161;28;19977;-86
2023/05/30 11:25:44;;;;;;;;;;;;;;;21.40;63.78;101190.09;5015791;28;20315;-87
2023/05/30 11:28:12;;;;;;;;;;;;;;;21.46;62.86;101181.34;5016062;28;19924;-86
2023/05/30 11:30:38;;;;;;;;;;;;;;;21.51;62.79;101177.00;5032454;28;20311;-86
2023/05/30 11:33:04;;;;;;;;;;;;;;;21.52;62.76;101176.13;5032488;28;19917;-86
2023/05/30 11:35:33;;;;;;;;;;;;;;;21.47;63.21;101165.44;5032004;28;20430;-86
2023/05/30 11:37:59;;;;;;;;;;;;;;;21.51;62.70;101169.03;5032931;28;20450;-86
2023/05/30 11:57:49;;;;;;;;;;;;;;;21.57;63.24;101166.47;4950720;28;19934;-87
2023/05/30 12:07:34;;;;;;;;;;;;;;;21.60;62.63;101169.16;4943735;28;19985;-87
2023/05/30 12:16:52;;;;;;;;;;;;;;;21.61;62.21;101165.66;4958599;28;19932;-87
2023/05/30 12:19:18;;;;;;;;;;;;;;;21.60;62.31;101169.16;5026629;28;19988;-87
2023/05/30 12:21:43;;;;;;;;;;;;;;;21.62;62.25;101171.88;5028757;28;19921;-87
2023/05/30 12:24:09;;;;;;;;;;;;;;;21.63;62.12;101176.28;5025480;28;20441;-88
2023/05/30 12:26:35;;;;;;;;;;;;;;;21.64;62.13;101180.75;4999963;28;19922;-87
2023/05/30 12:29:07;;;;;;;;;;;;;;;21.64;62.16;101191.38;4998549;28;20404;-87
2023/05/30 12:31:33;;;;;;;;;;;;;;;21.62;62.25;101191.34;5031413;28;20310;-87
2023/05/30 12:34:01;;;;;;;;;;;;;;;21.62;62.26;101186.03;5014537;28;20493;-86
2023/05/30 12:36:27;;;;;;;;;;;;;;;21.62;62.35;101180.72;5032438;28;19968;-87
2023/05/30 12:38:55;;;;;;;;;;;;;;;21.64;62.26;101186.06;5025802;28;19952;-86
2023/05/30 12:41:28;;;;;;;;;;;;;;;21.62;62.31;101179.84;5014312;28;19917;-86
2023/05/30 12:43:54;;;;;;;;;;;;;;;21.64;62.38;101183.41;5001388;28;19925;-86
2023/05/30 12:46:20;;;;;;;;;;;;;;;21.62;62.36;101186.03;5027977;28;19918;-86
2023/05/30 12:48:45;;;;;;;;;;;;;;;21.65;62.41;101180.78;5014909;28;19923;-87
2023/05/30 12:51:11;;;;;;;;;;;;;;;21.67;62.51;101175.47;5014637;28;19921;-86
2023/05/30 12:53:36;;;;;;;;;;;;;;;21.66;62.57;101173.69;5028403;28;20373;-86
2023/05/30 12:56:01;;;;;;;;;;;;;;;21.67;62.56;101172.81;5034961;28;20430;-85
2023/05/30 12:58:27;;;;;;;;;;;;;;;21.67;62.45;101175.47;5031621;28;19928;-85
2023/05/30 13:00:55;;;;;;;;;;;;;;;21.68;62.33;101174.63;5032625;28;19920;-84
2023/05/30 13:03:21;;;;;;;;;;;;;;;21.65;62.42;101179.88;5051723;28;19913;-86
2023/05/30 13:05:47;;;;;;;;;;;;;;;21.68;62.28;101178.16;5047544;28;19928;-84
2023/05/30 13:08:16;;;;;;;;;;;;;;;21.68;62.26;101172.84;5049261;28;19952;-87
2023/05/30 13:10:54;;;;;;;;;;;;;;;21.70;62.15;101172.88;5033477;28;19917;-85
2023/05/30 13:13:20;;;;;;;;;;;;;;;21.70;62.21;101160.47;5023636;28;19964;-86
2023/05/30 13:15:46;;;;;;;;;;;;;;;21.70;62.24;101156.94;5034082;28;20009;-85
2023/05/30 13:18:11;;;;;;;;;;;;;;;21.70;62.11;101160.47;5051653;28;20312;-84
2023/05/30 13:20:37;;;;;;;;;;;;;;;21.71;61.84;101159.56;5045366;28;20411;-84
2023/05/30 13:23:02;;;;;;;;;;;;;;;21.70;61.99;101163.13;5050648;28;20390;-84
2023/05/30 13:25:27;;;;;;;;;;;;;;;21.72;62.03;101165.81;5031558;28;19921;-84
2023/05/30 13:27:53;;;;;;;;;;;;;;;21.73;61.82;101164.94;5031333;28;19936;-86
2023/05/30 13:30:18;;;;;;;;;;;;;;;21.73;61.74;101165.81;5032620;28;19984;-86